createdAt,value
2018-12-08T00:01:49.989Z,79.20
2018-12-08T00:04:19.188Z,79.10
2018-12-08T00:06:48.456Z,79.00
2018-12-08T00:09:17.682Z,79.00
2018-12-08T00:11:48.019Z,79.30
2018-12-08T00:14:17.341Z,78.80
2018-12-08T00:16:46.576Z,78.70
2018-12-08T00:19:15.933Z,79.40
2018-12-08T00:21:45.165Z,80.50
2018-12-08T00:24:15.242Z,80.70
2018-12-08T00:26:44.450Z,81.20
2018-12-08T00:29:14.609Z,80.80
2018-12-08T00:31:45.506Z,80.40
2018-12-08T00:34:14.845Z,80.50
2018-12-08T00:36:49.488Z,80.30
2018-12-08T00:39:18.851Z,80.40
2018-12-08T00:41:48.188Z,80.50
2018-12-08T00:44:17.517Z,80.80
2018-12-08T00:46:47.753Z,80.90
2018-12-08T00:49:17.128Z,81.10
2018-12-08T00:51:46.385Z,81.10
2018-12-08T00:54:15.633Z,81.60
2018-12-08T00:56:44.867Z,81.90
2018-12-08T00:59:14.250Z,82.50
2018-12-08T01:01:44.084Z,83.00
2018-12-08T01:04:13.314Z,83.60
2018-12-08T01:06:43.146Z,84.00
2018-12-08T01:09:12.363Z,84.50
2018-12-08T01:11:41.794Z,85.00
2018-12-08T01:14:11.399Z,85.40
2018-12-08T01:16:40.611Z,85.50
2018-12-08T01:19:10.071Z,86.00
2018-12-08T01:21:39.324Z,85.90
2018-12-08T01:24:09.565Z,86.20
2018-12-08T01:26:38.796Z,86.40
2018-12-08T01:29:08.010Z,86.70
2018-12-08T01:31:37.225Z,86.90
2018-12-08T01:34:06.450Z,87.50
2018-12-08T01:36:35.733Z,87.80
2018-12-08T01:39:07.563Z,88.00
2018-12-08T01:41:36.813Z,88.30
2018-12-08T01:44:06.025Z,88.80
2018-12-08T01:46:35.306Z,89.10
2018-12-08T01:49:04.546Z,89.20
2018-12-08T01:51:33.771Z,89.50
2018-12-08T01:54:02.955Z,89.90
2018-12-08T01:56:32.135Z,90.00
2018-12-08T01:59:01.363Z,90.20
2018-12-08T02:01:30.937Z,90.20
2018-12-08T02:04:00.708Z,90.30
2018-12-08T02:06:29.916Z,90.60
2018-12-08T02:08:59.248Z,90.70
2018-12-08T02:11:28.486Z,91.10
2018-12-08T02:13:57.689Z,91.10
2018-12-08T02:16:26.875Z,91.20
2018-12-08T02:18:56.127Z,91.20
2018-12-08T02:21:25.298Z,91.30
2018-12-08T02:23:54.474Z,91.90
2018-12-08T02:26:23.710Z,91.60
2018-12-08T02:28:52.934Z,91.70
2018-12-08T02:31:22.119Z,91.80
2018-12-08T02:33:51.360Z,92.10
2018-12-08T02:36:20.546Z,92.20
2018-12-08T02:38:49.978Z,92.40
2018-12-08T02:41:19.184Z,92.50
2018-12-08T02:43:48.356Z,92.40
2018-12-08T02:46:17.514Z,92.40
2018-12-08T02:48:46.904Z,92.80
2018-12-08T02:51:16.731Z,93.00
2018-12-08T02:53:46.066Z,93.10
2018-12-08T02:56:15.247Z,93.10
2018-12-08T02:58:44.417Z,93.20
2018-12-08T03:01:13.584Z,93.50
2018-12-08T03:03:42.783Z,93.80
2018-12-08T03:06:12.234Z,93.90
2018-12-08T03:08:41.411Z,94.10
2018-12-08T03:11:10.574Z,94.30
2018-12-08T03:13:39.746Z,94.40
2018-12-08T03:16:08.922Z,94.50
2018-12-08T03:18:39.341Z,94.90
2018-12-08T03:21:08.522Z,94.80
2018-12-08T03:23:37.858Z,95.20
2018-12-08T03:26:07.025Z,95.30
2018-12-08T03:28:36.296Z,95.90
2018-12-08T03:31:05.577Z,96.10
2018-12-08T03:33:34.866Z,96.40
2018-12-08T03:36:04.040Z,96.60
2018-12-08T03:38:33.233Z,96.80
2018-12-08T03:41:02.461Z,96.90
2018-12-08T03:43:31.732Z,97.00
2018-12-08T03:46:00.978Z,97.20
2018-12-08T03:48:30.161Z,97.40
2018-12-08T03:51:04.987Z,97.90
2018-12-08T03:53:34.179Z,98.40
2018-12-08T03:56:03.344Z,98.60
2018-12-08T03:58:33.099Z,98.70
2018-12-08T04:01:02.456Z,99.20
2018-12-08T04:03:31.665Z,99.50
2018-12-08T04:06:00.873Z,99.70
2018-12-08T04:08:30.438Z,99.70
2018-12-08T04:10:59.696Z,99.90
2018-12-08T04:13:28.902Z,99.90
2018-12-08T04:15:58.277Z,99.90
2018-12-08T04:18:27.492Z,99.90
2018-12-08T04:20:56.679Z,99.90
2018-12-08T04:23:25.877Z,99.90
2018-12-08T04:25:55.851Z,99.90
2018-12-08T04:28:25.055Z,99.90
2018-12-08T04:30:54.249Z,99.90
2018-12-08T04:33:23.451Z,99.90
2018-12-08T04:35:54.564Z,99.90
2018-12-08T04:38:24.057Z,99.90
2018-12-08T04:40:53.237Z,99.90
2018-12-08T04:43:22.412Z,99.90
2018-12-08T04:45:51.611Z,99.90
2018-12-08T04:48:20.834Z,99.90
2018-12-08T04:50:50.002Z,99.90
2018-12-08T04:53:19.430Z,99.90
2018-12-08T04:55:48.625Z,99.90
2018-12-08T04:58:18.953Z,99.90
2018-12-08T05:00:48.703Z,99.90
2018-12-08T05:03:17.937Z,99.90
2018-12-08T05:05:47.135Z,99.90
2018-12-08T05:08:16.337Z,99.90
2018-12-08T05:10:45.790Z,99.90
2018-12-08T05:13:14.966Z,99.90
2018-12-08T05:15:48.273Z,99.90
2018-12-08T05:18:17.637Z,99.90
2018-12-08T05:20:47.930Z,99.90
2018-12-08T05:23:17.373Z,99.90
2018-12-08T05:25:46.549Z,99.90
2018-12-08T05:28:15.787Z,99.90
2018-12-08T05:30:46.131Z,99.90
2018-12-08T05:33:15.334Z,99.90
2018-12-08T05:35:44.508Z,99.90
2018-12-08T05:38:13.725Z,99.90
2018-12-08T05:40:42.900Z,99.90
2018-12-08T05:43:12.088Z,99.90
2018-12-08T05:45:41.274Z,99.90
2018-12-08T05:48:10.452Z,99.90
2018-12-08T05:50:39.650Z,99.90
2018-12-08T05:53:08.857Z,99.90
2018-12-08T05:55:38.509Z,99.90
2018-12-08T05:58:07.679Z,99.90
2018-12-08T06:00:36.885Z,99.90
2018-12-08T06:03:06.044Z,99.90
2018-12-08T06:05:35.284Z,99.90
2018-12-08T06:08:04.434Z,99.90
2018-12-08T06:10:33.595Z,99.90
2018-12-08T06:13:03.042Z,99.90
2018-12-08T06:15:32.217Z,99.90
2018-12-08T06:18:01.402Z,99.90
2018-12-08T06:20:30.568Z,99.90
2018-12-08T06:22:59.745Z,99.90
2018-12-08T06:25:29.235Z,99.90
2018-12-08T06:28:02.667Z,99.90
2018-12-08T06:30:31.844Z,99.90
2018-12-08T06:33:01.313Z,99.90
2018-12-08T06:35:30.471Z,99.90
2018-12-08T06:37:59.721Z,99.90
2018-12-08T06:40:29.266Z,99.90
2018-12-08T06:42:58.871Z,99.90
2018-12-08T06:45:28.076Z,99.90
2018-12-08T06:47:57.311Z,99.90
2018-12-08T06:50:26.526Z,99.90
2018-12-08T06:52:55.738Z,99.90
2018-12-08T06:55:25.082Z,99.90
2018-12-08T06:57:54.286Z,99.90
2018-12-08T07:00:23.537Z,99.90
2018-12-08T07:02:52.701Z,99.90
2018-12-08T07:05:21.922Z,99.90
2018-12-08T07:07:51.675Z,99.90
2018-12-08T07:10:20.849Z,99.90
2018-12-08T07:12:50.006Z,99.90
2018-12-08T07:15:19.540Z,99.90
2018-12-08T07:17:48.770Z,99.90
2018-12-08T07:20:18.019Z,99.90
2018-12-08T07:22:47.189Z,99.90
2018-12-08T07:25:16.420Z,99.90
2018-12-08T07:27:45.693Z,99.90
2018-12-08T07:30:14.987Z,99.90
2018-12-08T07:32:44.196Z,99.90
2018-12-08T07:35:13.454Z,99.90
2018-12-08T07:37:42.704Z,99.90
2018-12-08T07:40:11.948Z,99.90
2018-12-08T07:42:41.101Z,99.90
2018-12-08T07:45:10.374Z,99.90
2018-12-08T07:47:39.607Z,99.90
2018-12-08T07:50:08.869Z,99.90
2018-12-08T07:52:38.039Z,99.90
2018-12-08T07:55:07.416Z,99.90
2018-12-08T07:57:36.674Z,99.90
2018-12-08T08:00:08.904Z,99.90
2018-12-08T08:02:38.145Z,99.90
2018-12-08T08:05:08.868Z,99.90
2018-12-08T08:07:38.418Z,99.90
2018-12-08T08:10:09.200Z,99.90
2018-12-08T08:12:38.584Z,99.90
2018-12-08T08:15:08.362Z,99.90
2018-12-08T08:17:38.287Z,99.90
2018-12-08T08:20:07.969Z,99.90
2018-12-08T08:22:37.147Z,99.90
2018-12-08T08:25:07.744Z,99.90
2018-12-08T08:27:42.619Z,99.90
2018-12-08T08:30:11.896Z,99.90
2018-12-08T08:32:41.815Z,99.90
2018-12-08T08:35:11.062Z,99.90
2018-12-08T08:37:40.249Z,99.90
2018-12-08T08:40:10.599Z,99.90
2018-12-08T08:42:39.861Z,99.90
2018-12-08T08:45:15.193Z,99.90
2018-12-08T08:47:44.523Z,99.90
2018-12-08T08:50:13.808Z,99.90
2018-12-08T08:52:42.967Z,99.90
2018-12-08T08:55:12.118Z,99.90
2018-12-08T08:57:41.318Z,99.90
2018-12-08T09:00:10.715Z,99.90
2018-12-08T09:02:39.975Z,99.90
2018-12-08T09:05:09.262Z,99.90
2018-12-08T09:07:38.421Z,99.90
2018-12-08T09:10:09.433Z,99.90
2018-12-08T09:12:38.666Z,99.90
2018-12-08T09:15:09.368Z,99.90
2018-12-08T09:17:39.975Z,99.90
2018-12-08T09:20:10.321Z,99.90
2018-12-08T09:22:39.490Z,99.90
2018-12-08T09:25:08.824Z,99.90
2018-12-08T09:27:38.068Z,99.90
2018-12-08T09:30:07.711Z,99.90
2018-12-08T09:32:36.992Z,99.90
2018-12-08T09:35:06.392Z,99.90
2018-12-08T09:37:35.559Z,99.90
2018-12-08T09:40:05.783Z,99.90
2018-12-08T09:42:35.780Z,99.90
2018-12-08T09:45:05.194Z,99.90
2018-12-08T09:47:34.398Z,99.90
2018-12-08T09:50:05.635Z,99.90
2018-12-08T09:52:35.337Z,99.90
2018-12-08T09:55:04.656Z,99.90
2018-12-08T09:57:33.835Z,99.90
2018-12-08T10:00:03.069Z,99.90
2018-12-08T10:02:32.252Z,99.90
2018-12-08T10:05:01.424Z,99.90
2018-12-08T10:07:30.645Z,99.90
2018-12-08T10:09:59.821Z,99.90
2018-12-08T10:12:29.048Z,99.90
2018-12-08T10:14:58.183Z,99.90
2018-12-08T10:17:27.417Z,99.90
2018-12-08T10:19:57.139Z,99.90
2018-12-08T10:22:27.933Z,99.90
2018-12-08T10:24:57.362Z,99.90
2018-12-08T10:27:26.618Z,99.90
2018-12-08T10:29:55.823Z,99.90
2018-12-08T10:32:24.986Z,99.90
2018-12-08T10:34:54.306Z,99.90
2018-12-08T10:37:23.534Z,99.90
2018-12-08T10:39:52.760Z,99.90
2018-12-08T10:42:22.003Z,99.90
2018-12-08T10:44:56.891Z,99.90
2018-12-08T10:47:26.205Z,99.90
2018-12-08T10:49:55.417Z,99.90
2018-12-08T10:52:24.595Z,99.90
2018-12-08T10:54:53.840Z,99.90
2018-12-08T10:57:23.073Z,99.90
2018-12-08T10:59:52.280Z,99.90
2018-12-08T11:02:26.816Z,99.90
2018-12-08T11:04:56.157Z,99.90
2018-12-08T11:07:25.366Z,99.90
2018-12-08T11:09:54.569Z,99.90
2018-12-08T11:12:23.757Z,99.90
2018-12-08T11:15:00.471Z,99.90
2018-12-08T11:17:24.387Z,99.90
2018-12-08T11:19:53.658Z,99.90
2018-12-08T11:22:22.861Z,99.90
2018-12-08T11:24:52.063Z,99.90
2018-12-08T11:27:21.275Z,99.90
2018-12-08T11:29:50.434Z,99.90
2018-12-08T11:32:19.613Z,99.90
2018-12-08T11:34:48.844Z,99.90
2018-12-08T11:37:18.066Z,99.90
2018-12-08T11:39:47.255Z,99.90
2018-12-08T11:42:16.411Z,99.90
2018-12-08T11:44:45.887Z,99.90
2018-12-08T11:47:15.284Z,99.90
2018-12-08T11:49:44.553Z,99.90
2018-12-08T11:52:13.727Z,99.90
2018-12-08T11:54:42.945Z,99.90
2018-12-08T11:57:12.234Z,99.90
2018-12-08T11:59:41.425Z,99.90
2018-12-08T12:02:16.532Z,99.90
2018-12-08T12:04:42.157Z,99.90
2018-12-08T12:07:11.370Z,99.90
2018-12-08T12:09:40.614Z,99.90
2018-12-08T12:12:09.858Z,99.90
2018-12-08T12:14:43.755Z,99.90
2018-12-08T12:17:14.264Z,99.90
2018-12-08T12:19:44.520Z,99.90
2018-12-08T12:22:15.625Z,99.90
2018-12-08T12:24:45.967Z,99.90
2018-12-08T12:27:16.187Z,99.90
2018-12-08T12:29:46.413Z,99.90
2018-12-08T12:32:16.937Z,99.90
2018-12-08T12:34:47.158Z,99.90
2018-12-08T12:37:17.682Z,99.90
2018-12-08T12:39:47.904Z,99.90
2018-12-08T12:42:17.929Z,99.90
2018-12-08T12:44:48.346Z,99.90
2018-12-08T12:47:18.564Z,99.90
2018-12-08T12:49:48.790Z,99.90
2018-12-08T12:52:19.633Z,99.90
2018-12-08T12:54:49.867Z,99.90
2018-12-08T12:57:20.419Z,99.90
2018-12-08T12:59:50.612Z,99.90
2018-12-08T13:02:21.140Z,99.90
2018-12-08T13:04:51.363Z,99.90
2018-12-08T13:07:21.885Z,99.90
2018-12-08T13:09:53.030Z,99.90
2018-12-08T13:12:23.868Z,99.90
2018-12-08T13:14:55.008Z,99.90
2018-12-08T13:17:25.537Z,99.90
2018-12-08T13:19:56.680Z,99.90
2018-12-08T13:22:27.418Z,99.90
2018-12-08T13:25:05.225Z,99.90
2018-12-08T13:27:35.638Z,99.90
2018-12-08T13:30:07.090Z,99.90
2018-12-08T13:32:37.619Z,99.90
2018-12-08T13:35:09.981Z,99.90
2018-12-08T13:37:40.818Z,99.90
2018-12-08T13:40:11.037Z,99.90
2018-12-08T13:42:41.565Z,99.90
2018-12-08T13:45:18.234Z,99.90
2018-12-08T13:47:48.763Z,99.90
2018-12-08T13:50:18.985Z,99.90
2018-12-08T13:52:49.514Z,99.90
2018-12-08T13:55:19.788Z,99.90
2018-12-08T13:57:50.267Z,99.90
2018-12-08T14:00:20.787Z,99.90
2018-12-08T14:02:51.131Z,99.90
2018-12-08T14:05:21.354Z,99.90
2018-12-08T14:07:53.249Z,99.90
2018-12-08T14:10:23.640Z,99.90
2018-12-08T14:12:54.167Z,99.90
2018-12-08T14:15:24.389Z,99.90
2018-12-08T14:17:54.913Z,99.90
2018-12-08T14:20:27.894Z,99.90
2018-12-08T14:22:59.103Z,99.90
2018-12-08T14:25:29.705Z,99.90
2018-12-08T14:28:00.848Z,99.90
2018-12-08T14:30:31.821Z,99.90
2018-12-08T14:33:02.207Z,99.90
2018-12-08T14:35:32.748Z,99.90
2018-12-08T14:38:03.269Z,99.90
2018-12-08T14:40:36.409Z,99.90
2018-12-08T14:43:06.958Z,99.90
2018-12-08T14:45:37.616Z,99.90
2018-12-08T14:48:08.322Z,99.90
2018-12-08T14:50:38.931Z,99.90
2018-12-08T14:53:09.690Z,99.90
2018-12-08T14:55:40.216Z,99.90
2018-12-08T14:58:10.861Z,99.90
2018-12-08T15:00:42.006Z,99.40
2018-12-08T15:03:12.567Z,97.70
2018-12-08T15:05:43.144Z,95.80
2018-12-08T15:08:13.793Z,94.20
2018-12-08T15:10:45.037Z,92.50
2018-12-08T15:13:15.572Z,91.10
2018-12-08T15:15:47.325Z,89.80
2018-12-08T15:18:17.886Z,87.00
2018-12-08T15:20:48.418Z,85.30
2018-12-08T15:23:19.881Z,85.10
2018-12-08T15:25:51.290Z,83.30
2018-12-08T15:28:21.960Z,83.10
2018-12-08T15:30:52.509Z,82.00
2018-12-08T15:33:23.321Z,79.10
2018-12-08T15:35:56.221Z,77.90
2018-12-08T15:38:26.840Z,76.90
2018-12-08T15:40:58.851Z,75.90
2018-12-08T15:43:29.734Z,75.20
2018-12-08T15:46:01.433Z,74.20
2018-12-08T15:48:31.997Z,72.90
2018-12-08T15:51:02.522Z,72.10
2018-12-08T15:53:34.310Z,71.30
2018-12-08T15:56:07.897Z,69.80
2018-12-08T15:58:39.033Z,68.10
2018-12-08T16:01:09.560Z,68.30
2018-12-08T16:03:40.082Z,67.00
2018-12-08T16:06:11.541Z,65.40
2018-12-08T16:08:42.054Z,66.10
2018-12-08T16:11:12.586Z,67.20
2018-12-08T16:13:43.457Z,66.80
2018-12-08T16:16:13.949Z,64.90
2018-12-08T16:18:44.840Z,66.80
2018-12-08T16:21:15.623Z,66.40
2018-12-08T16:23:49.197Z,65.80
2018-12-08T16:26:19.751Z,64.00
2018-12-08T16:28:50.595Z,63.40
2018-12-08T16:31:21.108Z,61.80
2018-12-08T16:33:52.249Z,61.60
2018-12-08T16:36:22.779Z,61.70
2018-12-08T16:38:54.613Z,60.40
2018-12-08T16:41:25.073Z,59.60
2018-12-08T16:43:56.817Z,58.70
2018-12-08T16:46:28.593Z,59.00
2018-12-08T16:48:59.442Z,60.30
2018-12-08T16:51:30.903Z,61.00
2018-12-08T16:54:02.023Z,64.00
2018-12-08T16:56:32.466Z,64.00
2018-12-08T16:59:06.992Z,62.90
2018-12-08T17:01:37.609Z,62.50
2018-12-08T17:04:08.738Z,61.30
2018-12-08T17:06:39.581Z,61.50
2018-12-08T17:09:10.720Z,60.00
2018-12-08T17:11:45.244Z,61.00
2018-12-08T17:14:16.068Z,60.00
2018-12-08T17:16:46.923Z,59.70
2018-12-08T17:19:17.438Z,60.30
2018-12-08T17:21:48.895Z,61.00
2018-12-08T17:24:20.643Z,62.50
2018-12-08T17:26:53.013Z,63.50
2018-12-08T17:29:23.846Z,64.20
2018-12-08T17:31:55.600Z,65.40
2018-12-08T17:34:27.459Z,66.20
2018-12-08T17:36:59.045Z,66.90
2018-12-08T17:39:29.952Z,66.80
2018-12-08T17:42:00.559Z,66.30
2018-12-08T17:44:32.241Z,66.60
2018-12-08T17:47:02.774Z,67.70
2018-12-08T17:49:34.831Z,67.10
2018-12-08T17:52:05.357Z,66.80
2018-12-08T17:54:37.125Z,67.80
2018-12-08T17:57:08.599Z,66.00
2018-12-08T17:59:39.006Z,65.50
2018-12-08T18:02:12.323Z,64.70
2018-12-08T18:04:43.225Z,64.50
2018-12-08T18:07:13.863Z,63.80
2018-12-08T18:09:45.397Z,63.10
2018-12-08T18:12:15.840Z,62.00
2018-12-08T18:14:46.629Z,60.40
2018-12-08T18:17:17.258Z,59.60
2018-12-08T18:19:47.643Z,61.30
2018-12-08T18:22:18.429Z,62.30
2018-12-08T18:24:50.057Z,62.60
2018-12-08T18:27:20.523Z,63.60
2018-12-08T18:29:52.033Z,64.10
2018-12-08T18:32:22.637Z,63.70
2018-12-08T18:34:53.836Z,63.60
2018-12-08T18:37:24.410Z,62.00
2018-12-08T18:39:56.096Z,61.30
2018-12-08T18:42:26.382Z,62.60
2018-12-08T18:44:57.115Z,61.40
2018-12-08T18:47:27.592Z,61.00
2018-12-08T18:50:00.655Z,59.90
2018-12-08T18:52:31.282Z,60.40
2018-12-08T18:55:02.121Z,61.60
2018-12-08T18:57:32.319Z,64.00
2018-12-08T19:00:02.958Z,64.00
2018-12-08T19:02:33.577Z,65.10
2018-12-08T19:05:04.229Z,63.40
2018-12-08T19:07:34.754Z,64.90
2018-12-08T19:10:06.798Z,65.50
2018-12-08T19:12:37.173Z,65.20
2018-12-08T19:15:07.885Z,66.30
2018-12-08T19:17:38.409Z,66.60
2018-12-08T19:20:09.038Z,66.50
2018-12-08T19:22:39.433Z,65.70
2018-12-08T19:25:11.946Z,66.60
2018-12-08T19:27:42.334Z,67.30
2018-12-08T19:30:13.179Z,69.00
2018-12-08T19:32:43.708Z,69.00
2018-12-08T19:35:14.915Z,68.50
2018-12-08T19:37:45.402Z,67.80
2018-12-08T19:40:16.205Z,67.50
2018-12-08T19:42:47.342Z,67.30
2018-12-08T19:45:20.657Z,67.90
2018-12-08T19:47:52.719Z,68.00
2018-12-08T19:50:24.779Z,68.40
2018-12-08T19:52:55.312Z,68.30
2018-12-08T19:55:26.134Z,69.30
2018-12-08T19:57:56.665Z,70.00
2018-12-08T20:00:27.199Z,70.70
2018-12-08T20:02:57.405Z,70.60
2018-12-08T20:05:27.935Z,71.10
2018-12-08T20:07:58.479Z,71.60
2018-12-08T20:10:29.293Z,71.20
2018-12-08T20:12:59.824Z,70.20
2018-12-08T20:15:30.353Z,71.00
2018-12-08T20:18:00.879Z,71.40
2018-12-08T20:20:31.407Z,70.70
2018-12-08T20:23:01.946Z,71.20
2018-12-08T20:25:34.615Z,71.30
2018-12-08T20:28:05.159Z,71.40
2018-12-08T20:30:36.249Z,70.80
2018-12-08T20:33:06.722Z,70.90
2018-12-08T20:35:37.363Z,72.50
2018-12-08T20:38:09.656Z,72.10
2018-12-08T20:40:40.572Z,73.70
2018-12-08T20:43:12.027Z,73.90
2018-12-08T20:45:42.540Z,75.00
2018-12-08T20:48:14.002Z,74.70
2018-12-08T20:50:44.519Z,75.90
2018-12-08T20:53:15.972Z,79.60
2018-12-08T20:55:46.807Z,82.10
2018-12-08T20:58:17.331Z,82.20
2018-12-08T21:00:47.784Z,82.80
2018-12-08T21:03:18.316Z,83.30
2018-12-08T21:05:48.847Z,84.10
2018-12-08T21:08:19.375Z,84.90
2018-12-08T21:10:50.822Z,84.10
2018-12-08T21:13:21.654Z,84.10
2018-12-08T21:15:54.948Z,85.30
2018-12-08T21:18:26.092Z,84.70
2018-12-08T21:20:57.230Z,83.70
2018-12-08T21:23:27.779Z,83.40
2018-12-08T21:25:59.530Z,83.40
2018-12-08T21:28:30.063Z,84.20
2018-12-08T21:31:00.584Z,84.90
2018-12-08T21:33:31.129Z,86.10
2018-12-08T21:36:01.644Z,86.20
2018-12-08T21:38:32.001Z,87.10
2018-12-08T21:41:02.696Z,87.80
2018-12-08T21:43:33.227Z,88.70
2018-12-08T21:46:04.063Z,87.40
2018-12-08T21:48:34.594Z,89.90
2018-12-08T21:51:05.114Z,90.50
2018-12-08T21:53:35.743Z,90.90
2018-12-08T21:56:06.789Z,90.70
2018-12-08T21:58:37.433Z,91.30
2018-12-08T22:01:09.093Z,92.00
2018-12-08T22:03:39.614Z,92.00
2018-12-08T22:06:10.129Z,92.40
2018-12-08T22:08:40.768Z,92.20
2018-12-08T22:11:11.506Z,92.70
2018-12-08T22:13:42.045Z,93.20
2018-12-08T22:16:12.566Z,93.50
2018-12-08T22:18:43.088Z,93.80
2018-12-08T22:21:14.850Z,94.30
2018-12-08T22:23:45.315Z,94.30
2018-12-08T22:26:18.644Z,94.40
2018-12-08T22:28:49.192Z,94.00
2018-12-08T22:31:20.530Z,94.00
2018-12-08T22:33:52.448Z,94.10
2018-12-08T22:36:22.969Z,94.70
2018-12-08T22:38:53.186Z,95.30
2018-12-08T22:41:24.026Z,95.50
2018-12-08T22:43:54.246Z,95.70
2018-12-08T22:46:25.378Z,96.30
2018-12-08T22:48:55.980Z,96.70
2018-12-08T22:51:26.754Z,97.00
2018-12-08T22:53:57.278Z,97.60
2018-12-08T22:56:27.801Z,98.00
2018-12-08T22:58:57.833Z,98.70
2018-12-08T23:01:28.309Z,99.40
2018-12-08T23:03:59.694Z,99.90
2018-12-08T23:06:30.522Z,99.90
2018-12-08T23:09:00.742Z,99.90
2018-12-08T23:11:31.280Z,99.90
2018-12-08T23:14:01.801Z,99.90
2018-12-08T23:16:32.329Z,99.90
2018-12-08T23:19:02.861Z,99.90
2018-12-08T23:21:33.384Z,99.90
2018-12-08T23:24:03.910Z,99.90
2018-12-08T23:26:34.748Z,99.90
2018-12-08T23:29:05.278Z,99.90
2018-12-08T23:31:35.499Z,99.90
2018-12-08T23:34:05.715Z,99.90
2018-12-08T23:36:35.940Z,99.90
2018-12-08T23:39:07.809Z,99.90
2018-12-08T23:41:38.428Z,99.90
2018-12-08T23:44:08.574Z,99.90
2018-12-08T23:46:42.124Z,99.90
2018-12-08T23:49:12.572Z,99.90
2018-12-08T23:51:43.096Z,99.90
2018-12-08T23:54:13.633Z,99.90
2018-12-08T23:56:44.154Z,99.90
2018-12-08T23:59:14.374Z,99.90
